sensor_id;sensor_type;location;lat;lon;timestamp;P1;durP1;ratioP1;P2;durP2;ratioP2
11222;SDS011;5668;52.012;8.724;2024-01-16T00:00:35;3.13;;;1.80;;
11222;SDS011;5668;52.012;8.724;2024-01-16T00:03:02;2.47;;;1.73;;
11222;SDS011;5668;52.012;8.724;2024-01-16T00:05:31;3.60;;;2.10;;
11222;SDS011;5668;52.012;8.724;2024-01-16T00:07:58;3.83;;;1.87;;
11222;SDS011;5668;52.012;8.724;2024-01-16T00:10:26;4.53;;;1.90;;
11222;SDS011;5668;52.012;8.724;2024-01-16T00:12:53;4.10;;;1.97;;
11222;SDS011;5668;52.012;8.724;2024-01-16T00:15:20;5.43;;;2.03;;
11222;SDS011;5668;52.012;8.724;2024-01-16T00:17:47;3.90;;;1.83;;
11222;SDS011;5668;52.012;8.724;2024-01-16T00:20:16;3.57;;;2.10;;
11222;SDS011;5668;52.012;8.724;2024-01-16T00:22:46;3.13;;;2.27;;
11222;SDS011;5668;52.012;8.724;2024-01-16T00:25:13;4.70;;;2.00;;
11222;SDS011;5668;52.012;8.724;2024-01-16T00:27:40;4.07;;;1.80;;
11222;SDS011;5668;52.012;8.724;2024-01-16T00:30:08;5.23;;;2.10;;
11222;SDS011;5668;52.012;8.724;2024-01-16T00:32:36;6.17;;;1.90;;
11222;SDS011;5668;52.012;8.724;2024-01-16T00:35:05;3.23;;;1.80;;
11222;SDS011;5668;52.012;8.724;2024-01-16T00:37:32;2.70;;;1.70;;
11222;SDS011;5668;52.012;8.724;2024-01-16T00:40:01;4.10;;;1.90;;
11222;SDS011;5668;52.012;8.724;2024-01-16T00:42:29;4.53;;;2.13;;
11222;SDS011;5668;52.012;8.724;2024-01-16T00:44:57;3.50;;;1.90;;
11222;SDS011;5668;52.012;8.724;2024-01-16T00:47:24;2.70;;;1.77;;
11222;SDS011;5668;52.012;8.724;2024-01-16T00:49:52;5.67;;;1.87;;
11222;SDS011;5668;52.012;8.724;2024-01-16T00:52:19;4.27;;;1.60;;
11222;SDS011;5668;52.012;8.724;2024-01-16T00:54:46;4.50;;;1.80;;
11222;SDS011;5668;52.012;8.724;2024-01-16T00:57:15;4.20;;;1.70;;
11222;SDS011;5668;52.012;8.724;2024-01-16T00:59:44;2.60;;;1.80;;
11222;SDS011;5668;52.012;8.724;2024-01-16T01:02:11;2.63;;;1.70;;
11222;SDS011;5668;52.012;8.724;2024-01-16T01:04:38;3.17;;;2.17;;
11222;SDS011;5668;52.012;8.724;2024-01-16T01:07:07;4.17;;;1.77;;
11222;SDS011;5668;52.012;8.724;2024-01-16T01:09:35;3.20;;;2.10;;
11222;SDS011;5668;52.012;8.724;2024-01-16T01:12:02;3.30;;;2.10;;
11222;SDS011;5668;52.012;8.724;2024-01-16T01:14:31;2.63;;;1.83;;
11222;SDS011;5668;52.012;8.724;2024-01-16T01:16:59;4.57;;;1.90;;
11222;SDS011;5668;52.012;8.724;2024-01-16T01:19:26;4.97;;;1.97;;
11222;SDS011;5668;52.012;8.724;2024-01-16T01:21:53;3.17;;;1.70;;
11222;SDS011;5668;52.012;8.724;2024-01-16T01:24:20;3.10;;;2.00;;
11222;SDS011;5668;52.012;8.724;2024-01-16T01:26:48;7.03;;;2.33;;
11222;SDS011;5668;52.012;8.724;2024-01-16T01:29:15;4.23;;;2.53;;
11222;SDS011;5668;52.012;8.724;2024-01-16T01:31:46;4.13;;;2.07;;
11222;SDS011;5668;52.012;8.724;2024-01-16T01:34:13;4.47;;;2.40;;
11222;SDS011;5668;52.012;8.724;2024-01-16T01:36:41;4.27;;;2.23;;
11222;SDS011;5668;52.012;8.724;2024-01-16T01:39:08;4.53;;;2.27;;
11222;SDS011;5668;52.012;8.724;2024-01-16T01:41:36;4.90;;;2.47;;
11222;SDS011;5668;52.012;8.724;2024-01-16T01:44:05;2.40;;;2.20;;
11222;SDS011;5668;52.012;8.724;2024-01-16T01:46:32;6.07;;;2.10;;
11222;SDS011;5668;52.012;8.724;2024-01-16T01:49:02;5.90;;;2.30;;
11222;SDS011;5668;52.012;8.724;2024-01-16T01:51:30;6.33;;;2.20;;
11222;SDS011;5668;52.012;8.724;2024-01-16T01:53:57;4.03;;;2.30;;
11222;SDS011;5668;52.012;8.724;2024-01-16T01:56:26;4.40;;;2.30;;
11222;SDS011;5668;52.012;8.724;2024-01-16T01:58:56;7.83;;;2.63;;
11222;SDS011;5668;52.012;8.724;2024-01-16T02:01:24;4.80;;;2.50;;
11222;SDS011;5668;52.012;8.724;2024-01-16T02:03:55;5.57;;;2.70;;
11222;SDS011;5668;52.012;8.724;2024-01-16T02:06:25;4.67;;;2.60;;
11222;SDS011;5668;52.012;8.724;2024-01-16T02:08:52;8.63;;;3.27;;
11222;SDS011;5668;52.012;8.724;2024-01-16T02:11:20;5.70;;;2.70;;
11222;SDS011;5668;52.012;8.724;2024-01-16T02:13:47;6.93;;;2.90;;
11222;SDS011;5668;52.012;8.724;2024-01-16T02:16:18;6.53;;;2.83;;
11222;SDS011;5668;52.012;8.724;2024-01-16T02:18:46;8.20;;;3.10;;
11222;SDS011;5668;52.012;8.724;2024-01-16T02:21:15;5.30;;;2.70;;
11222;SDS011;5668;52.012;8.724;2024-01-16T02:23:46;7.90;;;3.37;;
11222;SDS011;5668;52.012;8.724;2024-01-16T02:26:14;10.77;;;3.20;;
11222;SDS011;5668;52.012;8.724;2024-01-16T02:28:41;7.90;;;3.30;;
11222;SDS011;5668;52.012;8.724;2024-01-16T02:31:09;6.40;;;3.20;;
11222;SDS011;5668;52.012;8.724;2024-01-16T02:33:36;9.03;;;3.63;;
11222;SDS011;5668;52.012;8.724;2024-01-16T02:36:03;6.73;;;3.57;;
11222;SDS011;5668;52.012;8.724;2024-01-16T02:38:31;7.33;;;4.37;;
11222;SDS011;5668;52.012;8.724;2024-01-16T02:41:00;7.90;;;3.67;;
11222;SDS011;5668;52.012;8.724;2024-01-16T02:43:27;7.83;;;3.63;;
11222;SDS011;5668;52.012;8.724;2024-01-16T02:45:54;9.63;;;3.50;;
11222;SDS011;5668;52.012;8.724;2024-01-16T02:48:23;6.20;;;3.43;;
11222;SDS011;5668;52.012;8.724;2024-01-16T02:50:50;5.17;;;3.20;;
11222;SDS011;5668;52.012;8.724;2024-01-16T02:53:17;11.20;;;4.03;;
11222;SDS011;5668;52.012;8.724;2024-01-16T02:55:44;4.90;;;3.80;;
11222;SDS011;5668;52.012;8.724;2024-01-16T02:58:13;7.80;;;3.87;;
11222;SDS011;5668;52.012;8.724;2024-01-16T03:00:40;7.87;;;3.70;;
11222;SDS011;5668;52.012;8.724;2024-01-16T03:03:08;5.40;;;3.73;;
11222;SDS011;5668;52.012;8.724;2024-01-16T03:05:35;7.40;;;4.00;;
11222;SDS011;5668;52.012;8.724;2024-01-16T03:08:03;6.27;;;4.13;;
11222;SDS011;5668;52.012;8.724;2024-01-16T03:10:31;7.40;;;3.80;;
11222;SDS011;5668;52.012;8.724;2024-01-16T03:12:58;10.57;;;4.20;;
11222;SDS011;5668;52.012;8.724;2024-01-16T03:15:26;7.87;;;4.27;;
11222;SDS011;5668;52.012;8.724;2024-01-16T03:17:55;11.10;;;4.10;;
11222;SDS011;5668;52.012;8.724;2024-01-16T03:20:23;7.40;;;3.57;;
11222;SDS011;5668;52.012;8.724;2024-01-16T03:22:50;7.93;;;3.87;;
11222;SDS011;5668;52.012;8.724;2024-01-16T03:25:18;5.97;;;3.60;;
11222;SDS011;5668;52.012;8.724;2024-01-16T03:27:46;5.53;;;3.50;;
11222;SDS011;5668;52.012;8.724;2024-01-16T03:30:14;4.00;;;3.13;;
11222;SDS011;5668;52.012;8.724;2024-01-16T03:32:42;8.10;;;3.40;;
11222;SDS011;5668;52.012;8.724;2024-01-16T03:35:10;5.90;;;3.60;;
11222;SDS011;5668;52.012;8.724;2024-01-16T03:37:37;7.83;;;3.57;;
11222;SDS011;5668;52.012;8.724;2024-01-16T03:40:05;7.00;;;3.33;;
11222;SDS011;5668;52.012;8.724;2024-01-16T03:42:34;8.50;;;3.50;;
11222;SDS011;5668;52.012;8.724;2024-01-16T03:45:01;10.97;;;3.63;;
11222;SDS011;5668;52.012;8.724;2024-01-16T03:47:29;8.10;;;3.90;;
11222;SDS011;5668;52.012;8.724;2024-01-16T03:49:57;12.67;;;4.00;;
11222;SDS011;5668;52.012;8.724;2024-01-16T03:52:24;8.87;;;3.97;;
11222;SDS011;5668;52.012;8.724;2024-01-16T03:54:52;6.77;;;3.60;;
11222;SDS011;5668;52.012;8.724;2024-01-16T03:57:19;6.53;;;4.10;;
11222;SDS011;5668;52.012;8.724;2024-01-16T03:59:46;6.57;;;4.43;;
11222;SDS011;5668;52.012;8.724;2024-01-16T04:02:14;5.53;;;3.93;;
11222;SDS011;5668;52.012;8.724;2024-01-16T04:04:41;7.57;;;3.97;;
11222;SDS011;5668;52.012;8.724;2024-01-16T04:07:10;5.73;;;4.17;;
11222;SDS011;5668;52.012;8.724;2024-01-16T04:09:37;5.47;;;3.97;;
11222;SDS011;5668;52.012;8.724;2024-01-16T04:12:04;5.77;;;4.00;;
11222;SDS011;5668;52.012;8.724;2024-01-16T04:14:33;7.47;;;4.53;;
11222;SDS011;5668;52.012;8.724;2024-01-16T04:17:01;7.60;;;3.97;;
11222;SDS011;5668;52.012;8.724;2024-01-16T04:19:28;7.90;;;4.00;;
11222;SDS011;5668;52.012;8.724;2024-01-16T04:21:58;7.90;;;4.47;;
11222;SDS011;5668;52.012;8.724;2024-01-16T04:24:27;6.77;;;4.30;;
11222;SDS011;5668;52.012;8.724;2024-01-16T04:26:55;7.73;;;5.00;;
11222;SDS011;5668;52.012;8.724;2024-01-16T04:29:22;6.70;;;4.50;;
11222;SDS011;5668;52.012;8.724;2024-01-16T04:31:49;7.83;;;4.87;;
11222;SDS011;5668;52.012;8.724;2024-01-16T04:34:16;6.50;;;4.30;;
11222;SDS011;5668;52.012;8.724;2024-01-16T04:36:44;5.30;;;4.60;;
11222;SDS011;5668;52.012;8.724;2024-01-16T04:39:11;7.20;;;5.37;;
11222;SDS011;5668;52.012;8.724;2024-01-16T04:41:40;7.43;;;4.77;;
11222;SDS011;5668;52.012;8.724;2024-01-16T04:44:07;9.10;;;5.17;;
11222;SDS011;5668;52.012;8.724;2024-01-16T04:46:34;9.53;;;5.07;;
11222;SDS011;5668;52.012;8.724;2024-01-16T04:49:02;6.80;;;5.37;;
11222;SDS011;5668;52.012;8.724;2024-01-16T04:51:29;11.03;;;5.40;;
11222;SDS011;5668;52.012;8.724;2024-01-16T04:53:56;6.87;;;5.63;;
11222;SDS011;5668;52.012;8.724;2024-01-16T04:56:23;7.17;;;5.33;;
11222;SDS011;5668;52.012;8.724;2024-01-16T04:58:52;6.67;;;5.07;;
11222;SDS011;5668;52.012;8.724;2024-01-16T05:01:19;7.47;;;5.00;;
11222;SDS011;5668;52.012;8.724;2024-01-16T05:03:46;7.83;;;5.33;;
11222;SDS011;5668;52.012;8.724;2024-01-16T05:06:13;9.43;;;5.37;;
11222;SDS011;5668;52.012;8.724;2024-01-16T05:08:41;10.50;;;5.17;;
11222;SDS011;5668;52.012;8.724;2024-01-16T05:11:08;8.03;;;5.07;;
11222;SDS011;5668;52.012;8.724;2024-01-16T05:13:35;6.30;;;5.00;;
11222;SDS011;5668;52.012;8.724;2024-01-16T05:16:05;10.03;;;5.63;;
11222;SDS011;5668;52.012;8.724;2024-01-16T05:18:33;11.07;;;5.33;;
11222;SDS011;5668;52.012;8.724;2024-01-16T05:21:00;8.83;;;4.90;;
11222;SDS011;5668;52.012;8.724;2024-01-16T05:23:28;8.83;;;4.80;;
11222;SDS011;5668;52.012;8.724;2024-01-16T05:25:55;8.63;;;4.63;;
11222;SDS011;5668;52.012;8.724;2024-01-16T05:28:23;10.00;;;5.20;;
11222;SDS011;5668;52.012;8.724;2024-01-16T05:30:50;7.37;;;4.50;;
11222;SDS011;5668;52.012;8.724;2024-01-16T05:33:18;9.60;;;4.87;;
11222;SDS011;5668;52.012;8.724;2024-01-16T05:35:46;6.93;;;4.17;;
11222;SDS011;5668;52.012;8.724;2024-01-16T05:38:13;7.03;;;4.50;;
11222;SDS011;5668;52.012;8.724;2024-01-16T05:40:41;5.10;;;4.20;;
11222;SDS011;5668;52.012;8.724;2024-01-16T05:43:08;7.43;;;4.50;;
11222;SDS011;5668;52.012;8.724;2024-01-16T05:45:35;5.83;;;4.13;;
11222;SDS011;5668;52.012;8.724;2024-01-16T05:48:02;7.77;;;4.57;;
11222;SDS011;5668;52.012;8.724;2024-01-16T05:50:33;6.47;;;4.63;;
11222;SDS011;5668;52.012;8.724;2024-01-16T05:53:02;9.20;;;4.40;;
11222;SDS011;5668;52.012;8.724;2024-01-16T05:55:29;9.33;;;4.90;;
11222;SDS011;5668;52.012;8.724;2024-01-16T05:57:57;7.37;;;4.47;;
11222;SDS011;5668;52.012;8.724;2024-01-16T06:00:25;9.63;;;4.43;;
11222;SDS011;5668;52.012;8.724;2024-01-16T06:02:52;6.27;;;4.40;;
11222;SDS011;5668;52.012;8.724;2024-01-16T06:05:19;8.00;;;5.00;;
11222;SDS011;5668;52.012;8.724;2024-01-16T06:07:48;8.20;;;4.47;;
11222;SDS011;5668;52.012;8.724;2024-01-16T06:10:16;6.10;;;4.30;;
11222;SDS011;5668;52.012;8.724;2024-01-16T06:12:44;7.97;;;4.17;;
11222;SDS011;5668;52.012;8.724;2024-01-16T06:15:11;5.67;;;4.30;;
11222;SDS011;5668;52.012;8.724;2024-01-16T06:17:38;7.73;;;4.23;;
11222;SDS011;5668;52.012;8.724;2024-01-16T06:20:06;7.67;;;3.93;;
11222;SDS011;5668;52.012;8.724;2024-01-16T06:22:35;5.00;;;3.90;;
11222;SDS011;5668;52.012;8.724;2024-01-16T06:25:04;5.27;;;4.17;;
11222;SDS011;5668;52.012;8.724;2024-01-16T06:27:32;7.23;;;4.07;;
11222;SDS011;5668;52.012;8.724;2024-01-16T06:29:59;6.90;;;4.20;;
11222;SDS011;5668;52.012;8.724;2024-01-16T06:32:28;5.23;;;4.13;;
11222;SDS011;5668;52.012;8.724;2024-01-16T06:34:56;8.73;;;4.23;;
11222;SDS011;5668;52.012;8.724;2024-01-16T06:37:23;7.03;;;4.60;;
11222;SDS011;5668;52.012;8.724;2024-01-16T06:39:50;7.70;;;4.80;;
11222;SDS011;5668;52.012;8.724;2024-01-16T06:42:19;5.97;;;4.70;;
11222;SDS011;5668;52.012;8.724;2024-01-16T06:44:46;7.80;;;4.77;;
11222;SDS011;5668;52.012;8.724;2024-01-16T06:47:13;6.03;;;4.43;;
11222;SDS011;5668;52.012;8.724;2024-01-16T06:49:41;6.13;;;4.33;;
11222;SDS011;5668;52.012;8.724;2024-01-16T06:52:08;6.97;;;4.53;;
11222;SDS011;5668;52.012;8.724;2024-01-16T06:54:35;6.40;;;4.73;;
11222;SDS011;5668;52.012;8.724;2024-01-16T06:57:03;6.47;;;4.67;;
11222;SDS011;5668;52.012;8.724;2024-01-16T06:59:32;8.33;;;5.43;;
11222;SDS011;5668;52.012;8.724;2024-01-16T07:02:00;6.73;;;4.87;;
11222;SDS011;5668;52.012;8.724;2024-01-16T07:04:27;6.93;;;5.00;;
11222;SDS011;5668;52.012;8.724;2024-01-16T07:06:54;5.77;;;4.60;;
11222;SDS011;5668;52.012;8.724;2024-01-16T07:09:22;9.60;;;6.10;;
11222;SDS011;5668;52.012;8.724;2024-01-16T07:11:49;9.67;;;5.50;;
11222;SDS011;5668;52.012;8.724;2024-01-16T07:14:16;6.73;;;4.90;;
11222;SDS011;5668;52.012;8.724;2024-01-16T07:16:45;6.50;;;5.23;;
11222;SDS011;5668;52.012;8.724;2024-01-16T07:19:12;8.77;;;5.90;;
11222;SDS011;5668;52.012;8.724;2024-01-16T07:21:39;7.80;;;5.30;;
11222;SDS011;5668;52.012;8.724;2024-01-16T07:24:07;10.57;;;6.20;;
11222;SDS011;5668;52.012;8.724;2024-01-16T07:26:34;7.77;;;6.03;;
11222;SDS011;5668;52.012;8.724;2024-01-16T07:29:01;12.47;;;6.13;;
11222;SDS011;5668;52.012;8.724;2024-01-16T07:31:29;8.10;;;5.57;;
11222;SDS011;5668;52.012;8.724;2024-01-16T07:33:57;8.00;;;5.90;;
11222;SDS011;5668;52.012;8.724;2024-01-16T07:36:25;8.57;;;6.20;;
11222;SDS011;5668;52.012;8.724;2024-01-16T07:38:53;10.07;;;5.90;;
11222;SDS011;5668;52.012;8.724;2024-01-16T07:41:20;11.03;;;6.63;;
11222;SDS011;5668;52.012;8.724;2024-01-16T07:43:47;9.47;;;6.57;;
11222;SDS011;5668;52.012;8.724;2024-01-16T07:46:14;8.83;;;6.67;;
11222;SDS011;5668;52.012;8.724;2024-01-16T07:48:42;9.30;;;7.30;;
11222;SDS011;5668;52.012;8.724;2024-01-16T07:51:12;9.87;;;6.43;;
11222;SDS011;5668;52.012;8.724;2024-01-16T07:53:39;9.87;;;6.97;;
11222;SDS011;5668;52.012;8.724;2024-01-16T07:56:06;11.50;;;7.77;;
11222;SDS011;5668;52.012;8.724;2024-01-16T07:58:34;10.90;;;7.00;;
11222;SDS011;5668;52.012;8.724;2024-01-16T08:01:01;9.13;;;6.83;;
11222;SDS011;5668;52.012;8.724;2024-01-16T08:03:29;9.00;;;6.00;;
11222;SDS011;5668;52.012;8.724;2024-01-16T08:05:56;9.57;;;6.50;;
11222;SDS011;5668;52.012;8.724;2024-01-16T08:08:25;9.33;;;6.27;;
11222;SDS011;5668;52.012;8.724;2024-01-16T08:10:53;8.57;;;6.20;;
11222;SDS011;5668;52.012;8.724;2024-01-16T08:13:21;9.67;;;5.80;;
11222;SDS011;5668;52.012;8.724;2024-01-16T08:15:48;9.23;;;6.70;;
11222;SDS011;5668;52.012;8.724;2024-01-16T08:18:15;8.17;;;6.73;;
11222;SDS011;5668;52.012;8.724;2024-01-16T08:20:43;8.67;;;6.10;;
11222;SDS011;5668;52.012;8.724;2024-01-16T08:23:10;9.67;;;6.37;;
11222;SDS011;5668;52.012;8.724;2024-01-16T08:25:39;10.63;;;6.70;;
11222;SDS011;5668;52.012;8.724;2024-01-16T08:28:06;8.03;;;6.50;;
11222;SDS011;5668;52.012;8.724;2024-01-16T08:30:34;9.40;;;6.50;;
11222;SDS011;5668;52.012;8.724;2024-01-16T08:33:01;9.73;;;6.27;;
11222;SDS011;5668;52.012;8.724;2024-01-16T08:35:29;7.90;;;6.00;;
11222;SDS011;5668;52.012;8.724;2024-01-16T08:37:56;8.03;;;6.07;;
11222;SDS011;5668;52.012;8.724;2024-01-16T08:40:24;8.57;;;6.40;;
11222;SDS011;5668;52.012;8.724;2024-01-16T08:42:52;9.60;;;6.80;;
11222;SDS011;5668;52.012;8.724;2024-01-16T08:45:20;10.63;;;6.57;;
11222;SDS011;5668;52.012;8.724;2024-01-16T08:47:47;8.67;;;6.53;;
11222;SDS011;5668;52.012;8.724;2024-01-16T08:50:15;7.50;;;5.63;;
11222;SDS011;5668;52.012;8.724;2024-01-16T08:52:46;8.07;;;5.73;;
11222;SDS011;5668;52.012;8.724;2024-01-16T08:55:13;9.73;;;6.17;;
11222;SDS011;5668;52.012;8.724;2024-01-16T08:57:40;7.97;;;5.93;;
11222;SDS011;5668;52.012;8.724;2024-01-16T09:00:09;10.40;;;5.77;;
11222;SDS011;5668;52.012;8.724;2024-01-16T09:02:37;9.13;;;6.30;;
11222;SDS011;5668;52.012;8.724;2024-01-16T09:05:04;6.77;;;6.00;;
11222;SDS011;5668;52.012;8.724;2024-01-16T09:07:32;8.13;;;5.30;;
11222;SDS011;5668;52.012;8.724;2024-01-16T09:09:59;5.97;;;5.20;;
11222;SDS011;5668;52.012;8.724;2024-01-16T09:12:27;6.93;;;5.27;;
11222;SDS011;5668;52.012;8.724;2024-01-16T09:14:54;8.93;;;5.03;;
11222;SDS011;5668;52.012;8.724;2024-01-16T09:17:22;6.93;;;5.60;;
11222;SDS011;5668;52.012;8.724;2024-01-16T09:19:50;9.60;;;5.40;;
11222;SDS011;5668;52.012;8.724;2024-01-16T09:22:18;8.27;;;5.57;;
11222;SDS011;5668;52.012;8.724;2024-01-16T09:24:45;7.60;;;5.47;;
11222;SDS011;5668;52.012;8.724;2024-01-16T09:27:12;8.53;;;6.13;;
11222;SDS011;5668;52.012;8.724;2024-01-16T09:29:41;6.90;;;5.30;;
11222;SDS011;5668;52.012;8.724;2024-01-16T09:32:08;5.73;;;4.83;;
11222;SDS011;5668;52.012;8.724;2024-01-16T09:34:37;7.67;;;5.03;;
11222;SDS011;5668;52.012;8.724;2024-01-16T09:37:04;6.70;;;5.13;;
11222;SDS011;5668;52.012;8.724;2024-01-16T09:39:32;6.77;;;5.07;;
11222;SDS011;5668;52.012;8.724;2024-01-16T09:42:03;6.73;;;5.07;;
11222;SDS011;5668;52.012;8.724;2024-01-16T09:44:30;5.77;;;4.97;;
11222;SDS011;5668;52.012;8.724;2024-01-16T09:46:59;6.90;;;5.07;;
11222;SDS011;5668;52.012;8.724;2024-01-16T09:49:29;5.10;;;4.50;;
11222;SDS011;5668;52.012;8.724;2024-01-16T09:51:57;7.00;;;5.43;;
11222;SDS011;5668;52.012;8.724;2024-01-16T09:54:26;7.83;;;5.30;;
11222;SDS011;5668;52.012;8.724;2024-01-16T09:56:54;6.10;;;4.87;;
11222;SDS011;5668;52.012;8.724;2024-01-16T09:59:24;7.93;;;5.40;;
11222;SDS011;5668;52.012;8.724;2024-01-16T10:01:53;8.73;;;5.80;;
11222;SDS011;5668;52.012;8.724;2024-01-16T10:04:21;6.83;;;5.40;;
11222;SDS011;5668;52.012;8.724;2024-01-16T10:06:49;9.90;;;6.07;;
11222;SDS011;5668;52.012;8.724;2024-01-16T10:09:18;9.97;;;6.20;;
11222;SDS011;5668;52.012;8.724;2024-01-16T10:11:46;11.93;;;7.23;;
11222;SDS011;5668;52.012;8.724;2024-01-16T10:14:14;10.17;;;6.90;;
11222;SDS011;5668;52.012;8.724;2024-01-16T10:16:56;12.70;;;8.80;;
11222;SDS011;5668;52.012;8.724;2024-01-16T10:19:24;10.93;;;8.47;;
11222;SDS011;5668;52.012;8.724;2024-01-16T10:21:53;10.90;;;8.87;;
11222;SDS011;5668;52.012;8.724;2024-01-16T10:24:29;14.30;;;9.23;;
11222;SDS011;5668;52.012;8.724;2024-01-16T10:26:58;13.77;;;8.93;;
11222;SDS011;5668;52.012;8.724;2024-01-16T10:29:28;13.83;;;10.13;;
11222;SDS011;5668;52.012;8.724;2024-01-16T10:31:56;13.60;;;10.00;;
11222;SDS011;5668;52.012;8.724;2024-01-16T10:34:23;16.10;;;10.60;;
11222;SDS011;5668;52.012;8.724;2024-01-16T10:36:51;15.63;;;11.07;;
11222;SDS011;5668;52.012;8.724;2024-01-16T10:39:25;15.43;;;11.97;;
11222;SDS011;5668;52.012;8.724;2024-01-16T10:41:57;18.17;;;12.13;;
11222;SDS011;5668;52.012;8.724;2024-01-16T10:44:24;17.97;;;13.20;;
11222;SDS011;5668;52.012;8.724;2024-01-16T10:46:52;18.10;;;13.90;;
11222;SDS011;5668;52.012;8.724;2024-01-16T10:49:35;19.43;;;13.97;;
11222;SDS011;5668;52.012;8.724;2024-01-16T10:52:03;18.03;;;14.00;;
11222;SDS011;5668;52.012;8.724;2024-01-16T10:54:35;18.00;;;15.10;;
11222;SDS011;5668;52.012;8.724;2024-01-16T10:57:08;19.97;;;15.33;;
11222;SDS011;5668;52.012;8.724;2024-01-16T10:59:38;16.97;;;14.80;;
11222;SDS011;5668;52.012;8.724;2024-01-16T11:02:12;20.30;;;16.17;;
11222;SDS011;5668;52.012;8.724;2024-01-16T11:04:46;21.47;;;16.20;;
11222;SDS011;5668;52.012;8.724;2024-01-16T11:07:14;23.07;;;15.80;;
11222;SDS011;5668;52.012;8.724;2024-01-16T11:09:43;20.83;;;15.67;;
11222;SDS011;5668;52.012;8.724;2024-01-16T11:12:13;19.93;;;14.77;;
11222;SDS011;5668;52.012;8.724;2024-01-16T11:14:42;18.87;;;15.83;;
11222;SDS011;5668;52.012;8.724;2024-01-16T11:17:11;18.37;;;15.20;;
11222;SDS011;5668;52.012;8.724;2024-01-16T11:19:43;22.03;;;15.23;;
11222;SDS011;5668;52.012;8.724;2024-01-16T11:22:12;17.30;;;15.10;;
11222;SDS011;5668;52.012;8.724;2024-01-16T11:24:41;20.83;;;15.63;;
11222;SDS011;5668;52.012;8.724;2024-01-16T11:27:13;18.13;;;14.33;;
11222;SDS011;5668;52.012;8.724;2024-01-16T11:29:49;16.47;;;14.20;;
11222;SDS011;5668;52.012;8.724;2024-01-16T11:32:32;15.40;;;12.73;;
11222;SDS011;5668;52.012;8.724;2024-01-16T11:35:00;18.23;;;13.43;;
11222;SDS011;5668;52.012;8.724;2024-01-16T11:37:29;15.47;;;12.40;;
11222;SDS011;5668;52.012;8.724;2024-01-16T11:42:49;17.53;;;11.50;;
11222;SDS011;5668;52.012;8.724;2024-01-16T11:48:18;15.97;;;11.53;;
11222;SDS011;5668;52.012;8.724;2024-01-16T11:50:46;13.47;;;10.57;;
11222;SDS011;5668;52.012;8.724;2024-01-16T11:53:33;14.07;;;9.63;;
11222;SDS011;5668;52.012;8.724;2024-01-16T11:59:37;13.67;;;8.00;;
11222;SDS011;5668;52.012;8.724;2024-01-16T12:02:24;11.50;;;7.07;;
11222;SDS011;5668;52.012;8.724;2024-01-16T12:04:58;10.07;;;6.83;;
11222;SDS011;5668;52.012;8.724;2024-01-16T12:07:29;11.47;;;7.17;;
11222;SDS011;5668;52.012;8.724;2024-01-16T12:10:08;9.80;;;6.27;;
11222;SDS011;5668;52.012;8.724;2024-01-16T12:12:36;9.60;;;6.40;;
11222;SDS011;5668;52.012;8.724;2024-01-16T12:15:06;11.93;;;6.50;;
11222;SDS011;5668;52.012;8.724;2024-01-16T12:17:39;10.90;;;6.17;;
11222;SDS011;5668;52.012;8.724;2024-01-16T12:20:18;6.80;;;5.23;;
11222;SDS011;5668;52.012;8.724;2024-01-16T12:22:52;7.83;;;5.17;;
11222;SDS011;5668;52.012;8.724;2024-01-16T12:25:20;8.23;;;5.30;;
11222;SDS011;5668;52.012;8.724;2024-01-16T12:27:53;7.67;;;4.60;;
11222;SDS011;5668;52.012;8.724;2024-01-16T12:30:25;8.97;;;4.60;;
11222;SDS011;5668;52.012;8.724;2024-01-16T12:33:06;7.23;;;4.33;;
11222;SDS011;5668;52.012;8.724;2024-01-16T12:35:35;9.70;;;4.97;;
11222;SDS011;5668;52.012;8.724;2024-01-16T12:38:03;10.23;;;4.80;;
11222;SDS011;5668;52.012;8.724;2024-01-16T12:40:34;9.90;;;5.03;;
11222;SDS011;5668;52.012;8.724;2024-01-16T12:43:02;8.13;;;4.73;;
11222;SDS011;5668;52.012;8.724;2024-01-16T12:45:32;11.00;;;5.10;;
11222;SDS011;5668;52.012;8.724;2024-01-16T12:48:01;8.83;;;4.73;;
11222;SDS011;5668;52.012;8.724;2024-01-16T12:50:29;7.23;;;3.80;;
11222;SDS011;5668;52.012;8.724;2024-01-16T12:53:01;9.57;;;4.50;;
11222;SDS011;5668;52.012;8.724;2024-01-16T12:55:29;9.53;;;4.57;;
11222;SDS011;5668;52.012;8.724;2024-01-16T12:58:13;8.47;;;4.73;;
11222;SDS011;5668;52.012;8.724;2024-01-16T13:00:42;8.20;;;4.30;;
11222;SDS011;5668;52.012;8.724;2024-01-16T13:03:17;10.37;;;4.00;;
11222;SDS011;5668;52.012;8.724;2024-01-16T13:05:45;6.70;;;3.90;;
11222;SDS011;5668;52.012;8.724;2024-01-16T13:08:20;8.87;;;4.00;;
11222;SDS011;5668;52.012;8.724;2024-01-16T13:11:01;5.90;;;3.97;;
11222;SDS011;5668;52.012;8.724;2024-01-16T13:13:29;7.07;;;4.57;;
11222;SDS011;5668;52.012;8.724;2024-01-16T13:15:59;8.10;;;4.10;;
11222;SDS011;5668;52.012;8.724;2024-01-16T13:18:27;7.97;;;3.87;;
11222;SDS011;5668;52.012;8.724;2024-01-16T13:20:55;9.73;;;4.23;;
11222;SDS011;5668;52.012;8.724;2024-01-16T13:23:23;8.33;;;3.87;;
11222;SDS011;5668;52.012;8.724;2024-01-16T13:25:51;8.47;;;3.90;;
11222;SDS011;5668;52.012;8.724;2024-01-16T13:28:20;7.33;;;3.83;;
11222;SDS011;5668;52.012;8.724;2024-01-16T13:30:48;7.33;;;3.70;;
11222;SDS011;5668;52.012;8.724;2024-01-16T13:33:17;7.10;;;4.07;;
11222;SDS011;5668;52.012;8.724;2024-01-16T13:35:45;7.80;;;3.90;;
11222;SDS011;5668;52.012;8.724;2024-01-16T13:38:13;6.23;;;3.70;;
11222;SDS011;5668;52.012;8.724;2024-01-16T13:40:41;9.50;;;3.97;;
11222;SDS011;5668;52.012;8.724;2024-01-16T13:43:09;6.97;;;4.13;;
11222;SDS011;5668;52.012;8.724;2024-01-16T13:45:36;6.30;;;4.13;;
11222;SDS011;5668;52.012;8.724;2024-01-16T13:48:04;8.10;;;3.93;;
11222;SDS011;5668;52.012;8.724;2024-01-16T13:50:33;5.13;;;3.40;;
11222;SDS011;5668;52.012;8.724;2024-01-16T13:53:01;10.20;;;4.07;;
11222;SDS011;5668;52.012;8.724;2024-01-16T13:55:28;7.20;;;3.77;;
11222;SDS011;5668;52.012;8.724;2024-01-16T13:57:57;5.23;;;3.67;;
11222;SDS011;5668;52.012;8.724;2024-01-16T14:00:24;5.30;;;3.67;;
11222;SDS011;5668;52.012;8.724;2024-01-16T14:02:51;6.73;;;3.70;;
11222;SDS011;5668;52.012;8.724;2024-01-16T14:05:19;4.60;;;3.30;;
11222;SDS011;5668;52.012;8.724;2024-01-16T14:07:49;8.23;;;3.43;;
11222;SDS011;5668;52.012;8.724;2024-01-16T14:10:17;7.03;;;3.87;;
11222;SDS011;5668;52.012;8.724;2024-01-16T14:12:47;5.87;;;3.60;;
11222;SDS011;5668;52.012;8.724;2024-01-16T14:15:15;8.50;;;3.90;;
11222;SDS011;5668;52.012;8.724;2024-01-16T14:17:44;9.93;;;3.80;;
11222;SDS011;5668;52.012;8.724;2024-01-16T14:20:13;6.93;;;3.60;;
11222;SDS011;5668;52.012;8.724;2024-01-16T14:22:42;10.40;;;3.60;;
11222;SDS011;5668;52.012;8.724;2024-01-16T14:25:11;6.47;;;3.80;;
11222;SDS011;5668;52.012;8.724;2024-01-16T14:27:40;6.30;;;3.90;;
11222;SDS011;5668;52.012;8.724;2024-01-16T14:30:09;7.27;;;3.53;;
11222;SDS011;5668;52.012;8.724;2024-01-16T14:32:39;9.40;;;4.20;;
11222;SDS011;5668;52.012;8.724;2024-01-16T14:35:07;6.27;;;4.17;;
11222;SDS011;5668;52.012;8.724;2024-01-16T14:37:36;6.23;;;3.80;;
11222;SDS011;5668;52.012;8.724;2024-01-16T14:40:05;7.53;;;3.90;;
11222;SDS011;5668;52.012;8.724;2024-01-16T14:42:39;6.10;;;4.20;;
11222;SDS011;5668;52.012;8.724;2024-01-16T14:45:06;7.17;;;3.90;;
11222;SDS011;5668;52.012;8.724;2024-01-16T14:47:36;4.27;;;3.77;;
11222;SDS011;5668;52.012;8.724;2024-01-16T14:50:05;7.73;;;4.03;;
11222;SDS011;5668;52.012;8.724;2024-01-16T14:52:37;8.17;;;4.33;;
11222;SDS011;5668;52.012;8.724;2024-01-16T14:55:05;6.00;;;4.27;;
11222;SDS011;5668;52.012;8.724;2024-01-16T14:57:33;7.90;;;3.53;;
11222;SDS011;5668;52.012;8.724;2024-01-16T15:00:09;5.80;;;4.03;;
11222;SDS011;5668;52.012;8.724;2024-01-16T15:02:45;8.97;;;4.70;;
11222;SDS011;5668;52.012;8.724;2024-01-16T15:05:13;8.83;;;4.37;;
11222;SDS011;5668;52.012;8.724;2024-01-16T15:07:40;7.40;;;4.50;;
11222;SDS011;5668;52.012;8.724;2024-01-16T15:10:10;6.37;;;3.73;;
11222;SDS011;5668;52.012;8.724;2024-01-16T15:12:40;7.73;;;4.37;;
11222;SDS011;5668;52.012;8.724;2024-01-16T15:15:10;8.23;;;4.03;;